createdAt,value
2022-12-26T00:12:30.641Z,100
2022-12-26T00:27:07.841Z,100
2022-12-26T00:41:45.671Z,100
2022-12-26T00:56:22.103Z,100
2022-12-26T01:10:59.963Z,100
2022-12-26T01:26:20.191Z,100
2022-12-26T01:40:42.223Z,100
2022-12-26T01:55:19.379Z,100
2022-12-26T02:09:57.798Z,100
2022-12-26T02:24:35.036Z,100
2022-12-26T02:39:46.796Z,100
2022-12-26T02:54:10.299Z,100
2022-12-26T03:08:48.346Z,100
2022-12-26T03:23:25.936Z,100
2022-12-26T03:38:03.204Z,100
2022-12-26T03:52:39.940Z,100
2022-12-26T04:07:16.741Z,100
2022-12-26T04:21:53.875Z,100
2022-12-26T04:36:31.415Z,100
2022-12-26T04:51:09.237Z,100
2022-12-26T05:05:47.588Z,100
2022-12-26T05:20:24.374Z,100
2022-12-26T05:35:01.303Z,100
2022-12-26T05:49:41.549Z,100
2022-12-26T06:04:17.040Z,100
2022-12-26T06:18:53.251Z,100
2022-12-26T06:33:31.047Z,100
2022-12-26T06:48:11.077Z,100
2022-12-26T07:02:47.021Z,100
2022-12-26T07:17:25.086Z,100
2022-12-26T07:32:02.714Z,100
2022-12-26T07:46:40.306Z,100
2022-12-26T08:01:16.552Z,100
2022-12-26T08:15:54.659Z,100
2022-12-26T08:30:32.108Z,100
2022-12-26T08:45:08.830Z,100
2022-12-26T08:59:46.650Z,100
2022-12-26T09:14:24.268Z,100
2022-12-26T09:29:02.367Z,100
2022-12-26T09:43:49.865Z,100
2022-12-26T09:58:23.631Z,100
2022-12-26T10:13:04.312Z,100
2022-12-26T10:27:41.528Z,100
2022-12-26T10:42:19.434Z,100
2022-12-26T10:56:57.911Z,100
2022-12-26T11:11:35.776Z,100
2022-12-26T11:26:13.305Z,100
2022-12-26T11:40:49.965Z,100
2022-12-26T11:55:28.041Z,100
2022-12-26T12:10:06.319Z,100
2022-12-26T12:24:44.634Z,100
2022-12-26T12:39:22.601Z,96.8
2022-12-26T12:54:00.519Z,96.3
2022-12-26T13:08:38.146Z,100
2022-12-26T13:23:14.440Z,100
2022-12-26T13:37:52.141Z,100
2022-12-26T13:52:29.378Z,100
2022-12-26T14:07:08.341Z,100
2022-12-26T14:21:46.843Z,100
2022-12-26T14:36:22.855Z,100
2022-12-26T14:51:03.385Z,100
2022-12-26T15:05:38.929Z,100
2022-12-26T15:20:15.968Z,100
2022-12-26T15:34:53.634Z,100
2022-12-26T15:49:29.378Z,100
2022-12-26T16:04:08.105Z,100
2022-12-26T16:18:44.218Z,100
2022-12-26T16:33:21.319Z,100
2022-12-26T16:47:58.215Z,100
2022-12-26T17:02:39.775Z,100
2022-12-26T17:17:16.181Z,100
2022-12-26T17:31:54.321Z,100
2022-12-26T17:46:31.243Z,100
2022-12-26T18:01:09.798Z,100
2022-12-26T18:15:47.121Z,100
2022-12-26T18:30:25.238Z,99.7
2022-12-26T18:45:01.466Z,93.1
2022-12-26T18:59:38.447Z,90
2022-12-26T19:14:16.022Z,91
2022-12-26T19:28:52.365Z,92.6
2022-12-26T19:43:30.893Z,95
2022-12-26T19:58:09.021Z,94.9
2022-12-26T20:12:47.318Z,94.4
2022-12-26T20:27:26.518Z,97.4
2022-12-26T20:42:04.808Z,99.2
2022-12-26T20:56:42.866Z,97.7
2022-12-26T21:11:20.302Z,95.8
2022-12-26T21:25:58.701Z,96.2
2022-12-26T21:40:36.655Z,98
2022-12-26T21:55:14.556Z,100
2022-12-26T22:09:52.958Z,99.7
2022-12-26T22:24:30.499Z,100
2022-12-26T22:39:10.106Z,100
2022-12-26T22:53:48.825Z,100
2022-12-26T23:08:28.013Z,100
2022-12-26T23:23:06.804Z,100
2022-12-26T23:37:47.036Z,100
2022-12-26T23:52:30.749Z,100
